sensor_id;sensor_type;location;lat;lon;timestamp;P1;durP1;ratioP1;P2;durP2;ratioP2
39098;SDS011;24844;52.380;7.018;2023-03-09T00:01:38;72.22;;;34.50;;
39098;SDS011;24844;52.380;7.018;2023-03-09T00:04:04;67.50;;;31.73;;
39098;SDS011;24844;52.380;7.018;2023-03-09T00:06:30;66.95;;;33.45;;
39098;SDS011;24844;52.380;7.018;2023-03-09T00:08:56;60.42;;;30.55;;
39098;SDS011;24844;52.380;7.018;2023-03-09T00:11:22;61.50;;;30.42;;
39098;SDS011;24844;52.380;7.018;2023-03-09T00:13:49;51.83;;;28.33;;
39098;SDS011;24844;52.380;7.018;2023-03-09T00:16:17;54.45;;;26.88;;
39098;SDS011;24844;52.380;7.018;2023-03-09T00:18:53;56.53;;;28.58;;
39098;SDS011;24844;52.380;7.018;2023-03-09T00:21:21;50.88;;;27.20;;
39098;SDS011;24844;52.380;7.018;2023-03-09T00:26:34;53.10;;;26.65;;
39098;SDS011;24844;52.380;7.018;2023-03-09T00:29:01;55.13;;;27.52;;
39098;SDS011;24844;52.380;7.018;2023-03-09T00:31:28;57.58;;;28.42;;
39098;SDS011;24844;52.380;7.018;2023-03-09T00:33:53;60.22;;;27.65;;
39098;SDS011;24844;52.380;7.018;2023-03-09T00:36:19;56.05;;;27.13;;
39098;SDS011;24844;52.380;7.018;2023-03-09T00:38:49;51.00;;;25.30;;
39098;SDS011;24844;52.380;7.018;2023-03-09T00:41:16;61.03;;;26.90;;
39098;SDS011;24844;52.380;7.018;2023-03-09T00:43:42;59.70;;;28.90;;
39098;SDS011;24844;52.380;7.018;2023-03-09T00:46:07;58.85;;;27.90;;
39098;SDS011;24844;52.380;7.018;2023-03-09T00:48:35;62.55;;;29.00;;
39098;SDS011;24844;52.380;7.018;2023-03-09T00:51:01;63.72;;;27.80;;
39098;SDS011;24844;52.380;7.018;2023-03-09T00:53:26;67.30;;;28.05;;
39098;SDS011;24844;52.380;7.018;2023-03-09T00:55:52;68.35;;;27.75;;
39098;SDS011;24844;52.380;7.018;2023-03-09T00:58:17;62.15;;;26.95;;
39098;SDS011;24844;52.380;7.018;2023-03-09T01:00:43;74.28;;;29.92;;
39098;SDS011;24844;52.380;7.018;2023-03-09T01:03:09;65.13;;;26.30;;
39098;SDS011;24844;52.380;7.018;2023-03-09T01:05:34;67.15;;;28.92;;
39098;SDS011;24844;52.380;7.018;2023-03-09T01:08:01;76.40;;;31.10;;
39098;SDS011;24844;52.380;7.018;2023-03-09T01:10:27;74.65;;;30.67;;
39098;SDS011;24844;52.380;7.018;2023-03-09T01:12:52;88.50;;;31.27;;
39098;SDS011;24844;52.380;7.018;2023-03-09T01:15:20;75.32;;;30.60;;
39098;SDS011;24844;52.380;7.018;2023-03-09T01:17:46;77.40;;;30.15;;
39098;SDS011;24844;52.380;7.018;2023-03-09T01:20:12;76.85;;;32.70;;
39098;SDS011;24844;52.380;7.018;2023-03-09T01:22:38;79.88;;;32.30;;
39098;SDS011;24844;52.380;7.018;2023-03-09T01:25:05;90.15;;;34.05;;
39098;SDS011;24844;52.380;7.018;2023-03-09T01:27:31;73.20;;;29.58;;
39098;SDS011;24844;52.380;7.018;2023-03-09T01:29:57;79.45;;;33.45;;
39098;SDS011;24844;52.380;7.018;2023-03-09T01:32:22;76.20;;;31.83;;
39098;SDS011;24844;52.380;7.018;2023-03-09T01:34:50;84.60;;;33.40;;
39098;SDS011;24844;52.380;7.018;2023-03-09T01:37:16;76.43;;;32.65;;
39098;SDS011;24844;52.380;7.018;2023-03-09T01:39:42;84.93;;;35.72;;
39098;SDS011;24844;52.380;7.018;2023-03-09T01:42:08;82.15;;;33.80;;
39098;SDS011;24844;52.380;7.018;2023-03-09T01:44:34;82.60;;;33.58;;
39098;SDS011;24844;52.380;7.018;2023-03-09T01:46:59;76.45;;;31.80;;
39098;SDS011;24844;52.380;7.018;2023-03-09T01:49:27;64.22;;;28.45;;
39098;SDS011;24844;52.380;7.018;2023-03-09T01:52:07;78.28;;;32.60;;
39098;SDS011;24844;52.380;7.018;2023-03-09T01:55:23;73.05;;;31.98;;
39098;SDS011;24844;52.380;7.018;2023-03-09T01:59:52;71.53;;;33.72;;
39098;SDS011;24844;52.380;7.018;2023-03-09T02:02:20;71.25;;;31.10;;
39098;SDS011;24844;52.380;7.018;2023-03-09T02:04:51;67.72;;;30.10;;
39098;SDS011;24844;52.380;7.018;2023-03-09T02:07:20;63.90;;;29.55;;
39098;SDS011;24844;52.380;7.018;2023-03-09T02:09:48;65.57;;;31.67;;
39098;SDS011;24844;52.380;7.018;2023-03-09T02:12:22;65.03;;;30.13;;
39098;SDS011;24844;52.380;7.018;2023-03-09T02:14:48;65.03;;;31.40;;
39098;SDS011;24844;52.380;7.018;2023-03-09T02:17:14;62.10;;;31.40;;
39098;SDS011;24844;52.380;7.018;2023-03-09T02:19:48;56.80;;;28.77;;
39098;SDS011;24844;52.380;7.018;2023-03-09T02:22:18;56.40;;;28.48;;
39098;SDS011;24844;52.380;7.018;2023-03-09T02:27:14;55.85;;;28.50;;
39098;SDS011;24844;52.380;7.018;2023-03-09T02:29:44;52.70;;;27.48;;
39098;SDS011;24844;52.380;7.018;2023-03-09T02:32:10;53.63;;;27.02;;
39098;SDS011;24844;52.380;7.018;2023-03-09T02:34:36;55.25;;;29.00;;
39098;SDS011;24844;52.380;7.018;2023-03-09T02:37:03;52.50;;;27.83;;
39098;SDS011;24844;52.380;7.018;2023-03-09T02:39:37;50.60;;;26.67;;
39098;SDS011;24844;52.380;7.018;2023-03-09T02:42:08;51.08;;;27.20;;
39098;SDS011;24844;52.380;7.018;2023-03-09T02:44:34;52.45;;;27.02;;
39098;SDS011;24844;52.380;7.018;2023-03-09T02:47:00;51.65;;;28.05;;
39098;SDS011;24844;52.380;7.018;2023-03-09T02:49:27;49.15;;;25.98;;
39098;SDS011;24844;52.380;7.018;2023-03-09T02:51:53;48.67;;;25.73;;
39098;SDS011;24844;52.380;7.018;2023-03-09T02:54:18;47.92;;;25.65;;
39098;SDS011;24844;52.380;7.018;2023-03-09T02:56:44;49.42;;;25.92;;
39098;SDS011;24844;52.380;7.018;2023-03-09T02:59:09;46.80;;;24.17;;
39098;SDS011;24844;52.380;7.018;2023-03-09T03:01:35;44.80;;;24.92;;
39098;SDS011;24844;52.380;7.018;2023-03-09T03:04:01;45.53;;;22.92;;
39098;SDS011;24844;52.380;7.018;2023-03-09T03:06:26;48.38;;;25.92;;
39098;SDS011;24844;52.380;7.018;2023-03-09T03:08:52;46.65;;;26.85;;
39098;SDS011;24844;52.380;7.018;2023-03-09T03:11:17;45.22;;;26.27;;
39098;SDS011;24844;52.380;7.018;2023-03-09T03:13:43;44.58;;;24.77;;
39098;SDS011;24844;52.380;7.018;2023-03-09T03:16:09;46.15;;;25.40;;
39098;SDS011;24844;52.380;7.018;2023-03-09T03:18:34;47.38;;;25.15;;
39098;SDS011;24844;52.380;7.018;2023-03-09T03:21:00;47.22;;;26.48;;
39098;SDS011;24844;52.380;7.018;2023-03-09T03:23:26;47.75;;;25.55;;
39098;SDS011;24844;52.380;7.018;2023-03-09T03:25:51;50.22;;;26.35;;
39098;SDS011;24844;52.380;7.018;2023-03-09T03:28:17;47.92;;;27.45;;
39098;SDS011;24844;52.380;7.018;2023-03-09T03:30:44;46.20;;;24.38;;
39098;SDS011;24844;52.380;7.018;2023-03-09T03:33:15;50.30;;;27.77;;
39098;SDS011;24844;52.380;7.018;2023-03-09T03:35:41;49.28;;;26.95;;
39098;SDS011;24844;52.380;7.018;2023-03-09T03:38:06;53.50;;;28.95;;
39098;SDS011;24844;52.380;7.018;2023-03-09T03:40:32;52.88;;;28.85;;
39098;SDS011;24844;52.380;7.018;2023-03-09T03:42:57;54.88;;;27.65;;
39098;SDS011;24844;52.380;7.018;2023-03-09T03:45:23;58.97;;;29.65;;
39098;SDS011;24844;52.380;7.018;2023-03-09T03:47:50;54.92;;;27.50;;
39098;SDS011;24844;52.380;7.018;2023-03-09T03:50:16;58.92;;;29.17;;
39098;SDS011;24844;52.380;7.018;2023-03-09T03:52:41;54.53;;;27.42;;
39098;SDS011;24844;52.380;7.018;2023-03-09T03:55:07;58.08;;;28.58;;
39098;SDS011;24844;52.380;7.018;2023-03-09T03:57:33;56.40;;;30.10;;
39098;SDS011;24844;52.380;7.018;2023-03-09T03:59:59;50.90;;;26.10;;
39098;SDS011;24844;52.380;7.018;2023-03-09T04:02:24;55.80;;;28.58;;
39098;SDS011;24844;52.380;7.018;2023-03-09T04:04:50;54.70;;;27.40;;
39098;SDS011;24844;52.380;7.018;2023-03-09T04:07:15;50.97;;;27.08;;
39098;SDS011;24844;52.380;7.018;2023-03-09T04:09:41;54.70;;;27.70;;
39098;SDS011;24844;52.380;7.018;2023-03-09T04:12:07;52.33;;;27.77;;
39098;SDS011;24844;52.380;7.018;2023-03-09T04:14:32;56.33;;;28.60;;
39098;SDS011;24844;52.380;7.018;2023-03-09T04:16:58;53.92;;;28.27;;
39098;SDS011;24844;52.380;7.018;2023-03-09T04:19:24;54.47;;;28.90;;
39098;SDS011;24844;52.380;7.018;2023-03-09T04:21:49;50.05;;;26.25;;
39098;SDS011;24844;52.380;7.018;2023-03-09T04:24:15;50.00;;;26.50;;
39098;SDS011;24844;52.380;7.018;2023-03-09T04:26:40;53.20;;;26.25;;
39098;SDS011;24844;52.380;7.018;2023-03-09T04:29:06;52.92;;;27.23;;
39098;SDS011;24844;52.380;7.018;2023-03-09T04:31:31;54.10;;;28.05;;
39098;SDS011;24844;52.380;7.018;2023-03-09T04:33:57;50.53;;;27.73;;
39098;SDS011;24844;52.380;7.018;2023-03-09T04:36:22;48.88;;;27.33;;
39098;SDS011;24844;52.380;7.018;2023-03-09T04:38:48;50.78;;;28.02;;
39098;SDS011;24844;52.380;7.018;2023-03-09T04:41:14;50.05;;;26.80;;
39098;SDS011;24844;52.380;7.018;2023-03-09T04:43:39;51.35;;;27.00;;
39098;SDS011;24844;52.380;7.018;2023-03-09T04:46:05;48.63;;;24.92;;
39098;SDS011;24844;52.380;7.018;2023-03-09T04:48:30;49.53;;;27.20;;
39098;SDS011;24844;52.380;7.018;2023-03-09T04:50:56;45.53;;;26.02;;
39098;SDS011;24844;52.380;7.018;2023-03-09T04:53:22;48.72;;;27.25;;
39098;SDS011;24844;52.380;7.018;2023-03-09T04:55:47;48.35;;;27.15;;
39098;SDS011;24844;52.380;7.018;2023-03-09T04:58:13;45.13;;;24.30;;
39098;SDS011;24844;52.380;7.018;2023-03-09T05:00:38;44.53;;;25.38;;
39098;SDS011;24844;52.380;7.018;2023-03-09T05:03:04;46.47;;;26.20;;
39098;SDS011;24844;52.380;7.018;2023-03-09T05:05:29;44.53;;;25.08;;
39098;SDS011;24844;52.380;7.018;2023-03-09T05:07:55;53.65;;;28.00;;
39098;SDS011;24844;52.380;7.018;2023-03-09T05:10:21;45.22;;;26.05;;
39098;SDS011;24844;52.380;7.018;2023-03-09T05:12:46;49.67;;;26.20;;
39098;SDS011;24844;52.380;7.018;2023-03-09T05:15:12;47.03;;;25.58;;
39098;SDS011;24844;52.380;7.018;2023-03-09T05:17:38;43.95;;;24.38;;
39098;SDS011;24844;52.380;7.018;2023-03-09T05:20:03;44.38;;;25.60;;
39098;SDS011;24844;52.380;7.018;2023-03-09T05:22:36;44.10;;;25.48;;
39098;SDS011;24844;52.380;7.018;2023-03-09T05:25:05;44.13;;;23.13;;
39098;SDS011;24844;52.380;7.018;2023-03-09T05:27:31;47.13;;;25.73;;
39098;SDS011;24844;52.380;7.018;2023-03-09T05:29:57;41.67;;;23.60;;
39098;SDS011;24844;52.380;7.018;2023-03-09T05:32:23;45.55;;;26.42;;
39098;SDS011;24844;52.380;7.018;2023-03-09T05:34:48;46.88;;;25.45;;
39098;SDS011;24844;52.380;7.018;2023-03-09T05:37:14;44.80;;;24.75;;
39098;SDS011;24844;52.380;7.018;2023-03-09T05:39:39;44.85;;;25.13;;
39098;SDS011;24844;52.380;7.018;2023-03-09T05:42:05;43.78;;;25.52;;
39098;SDS011;24844;52.380;7.018;2023-03-09T05:44:31;50.92;;;25.33;;
39098;SDS011;24844;52.380;7.018;2023-03-09T05:46:56;47.53;;;25.13;;
39098;SDS011;24844;52.380;7.018;2023-03-09T05:49:22;42.97;;;25.80;;
39098;SDS011;24844;52.380;7.018;2023-03-09T05:51:49;43.85;;;23.38;;
39098;SDS011;24844;52.380;7.018;2023-03-09T05:54:14;45.55;;;24.15;;
39098;SDS011;24844;52.380;7.018;2023-03-09T05:56:41;49.42;;;26.63;;
39098;SDS011;24844;52.380;7.018;2023-03-09T05:59:07;46.65;;;26.75;;
39098;SDS011;24844;52.380;7.018;2023-03-09T06:01:33;45.72;;;26.40;;
39098;SDS011;24844;52.380;7.018;2023-03-09T06:03:58;49.00;;;26.40;;
39098;SDS011;24844;52.380;7.018;2023-03-09T06:06:24;49.13;;;26.10;;
39098;SDS011;24844;52.380;7.018;2023-03-09T06:08:49;49.53;;;27.38;;
39098;SDS011;24844;52.380;7.018;2023-03-09T06:11:16;48.65;;;26.65;;
39098;SDS011;24844;52.380;7.018;2023-03-09T06:13:42;43.42;;;25.08;;
39098;SDS011;24844;52.380;7.018;2023-03-09T06:16:10;47.50;;;25.48;;
39098;SDS011;24844;52.380;7.018;2023-03-09T06:18:38;45.97;;;24.83;;
39098;SDS011;24844;52.380;7.018;2023-03-09T06:21:04;47.38;;;26.58;;
39098;SDS011;24844;52.380;7.018;2023-03-09T06:23:31;46.63;;;25.60;;
39098;SDS011;24844;52.380;7.018;2023-03-09T06:25:57;45.97;;;24.55;;
39098;SDS011;24844;52.380;7.018;2023-03-09T06:28:23;44.63;;;26.42;;
39098;SDS011;24844;52.380;7.018;2023-03-09T06:30:49;41.08;;;23.45;;
39098;SDS011;24844;52.380;7.018;2023-03-09T06:33:15;45.03;;;25.60;;
39098;SDS011;24844;52.380;7.018;2023-03-09T06:35:41;47.83;;;26.60;;
39098;SDS011;24844;52.380;7.018;2023-03-09T06:38:07;108.80;;;26.48;;
39098;SDS011;24844;52.380;7.018;2023-03-09T06:40:32;45.15;;;24.58;;
39098;SDS011;24844;52.380;7.018;2023-03-09T06:42:58;46.50;;;26.05;;
39098;SDS011;24844;52.380;7.018;2023-03-09T06:45:24;45.75;;;25.98;;
39098;SDS011;24844;52.380;7.018;2023-03-09T06:47:56;42.60;;;24.55;;
39098;SDS011;24844;52.380;7.018;2023-03-09T06:50:22;46.20;;;25.50;;
39098;SDS011;24844;52.380;7.018;2023-03-09T06:52:49;42.55;;;24.73;;
39098;SDS011;24844;52.380;7.018;2023-03-09T06:55:15;43.30;;;25.10;;
39098;SDS011;24844;52.380;7.018;2023-03-09T06:57:41;45.45;;;24.98;;
39098;SDS011;24844;52.380;7.018;2023-03-09T07:00:07;41.00;;;24.50;;
39098;SDS011;24844;52.380;7.018;2023-03-09T07:02:36;43.75;;;23.67;;
39098;SDS011;24844;52.380;7.018;2023-03-09T07:05:01;40.90;;;24.33;;
39098;SDS011;24844;52.380;7.018;2023-03-09T07:07:27;40.67;;;24.02;;
39098;SDS011;24844;52.380;7.018;2023-03-09T07:09:52;47.63;;;25.65;;
39098;SDS011;24844;52.380;7.018;2023-03-09T07:12:18;43.95;;;24.92;;
39098;SDS011;24844;52.380;7.018;2023-03-09T07:14:44;39.13;;;22.70;;
39098;SDS011;24844;52.380;7.018;2023-03-09T07:17:13;41.28;;;25.40;;
39098;SDS011;24844;52.380;7.018;2023-03-09T07:19:39;39.30;;;23.38;;
39098;SDS011;24844;52.380;7.018;2023-03-09T07:22:06;41.08;;;25.02;;
39098;SDS011;24844;52.380;7.018;2023-03-09T07:24:35;38.45;;;22.92;;
39098;SDS011;24844;52.380;7.018;2023-03-09T07:27:02;39.90;;;24.73;;
39098;SDS011;24844;52.380;7.018;2023-03-09T07:29:28;43.03;;;24.50;;
39098;SDS011;24844;52.380;7.018;2023-03-09T07:31:53;38.35;;;24.35;;
39098;SDS011;24844;52.380;7.018;2023-03-09T07:34:19;40.40;;;24.05;;
39098;SDS011;24844;52.380;7.018;2023-03-09T07:36:46;38.58;;;23.65;;
39098;SDS011;24844;52.380;7.018;2023-03-09T07:39:12;41.08;;;24.80;;
39098;SDS011;24844;52.380;7.018;2023-03-09T07:41:38;34.45;;;22.05;;
39098;SDS011;24844;52.380;7.018;2023-03-09T07:44:05;40.38;;;24.13;;
39098;SDS011;24844;52.380;7.018;2023-03-09T07:46:30;37.17;;;24.13;;
39098;SDS011;24844;52.380;7.018;2023-03-09T07:48:56;34.42;;;22.35;;
39098;SDS011;24844;52.380;7.018;2023-03-09T07:51:22;648.28;;;57.95;;
39098;SDS011;24844;52.380;7.018;2023-03-09T07:53:48;40.30;;;23.40;;
39098;SDS011;24844;52.380;7.018;2023-03-09T07:56:14;37.90;;;23.02;;
39098;SDS011;24844;52.380;7.018;2023-03-09T07:58:39;38.35;;;24.30;;
39098;SDS011;24844;52.380;7.018;2023-03-09T08:01:12;33.65;;;22.25;;
39098;SDS011;24844;52.380;7.018;2023-03-09T08:03:39;36.85;;;21.85;;
39098;SDS011;24844;52.380;7.018;2023-03-09T08:06:04;35.70;;;23.52;;
39098;SDS011;24844;52.380;7.018;2023-03-09T08:08:30;36.75;;;23.77;;
39098;SDS011;24844;52.380;7.018;2023-03-09T08:10:57;35.53;;;23.38;;
39098;SDS011;24844;52.380;7.018;2023-03-09T08:13:23;34.13;;;21.95;;
39098;SDS011;24844;52.380;7.018;2023-03-09T08:15:50;32.20;;;20.02;;
39098;SDS011;24844;52.380;7.018;2023-03-09T08:18:16;37.53;;;23.05;;
39098;SDS011;24844;52.380;7.018;2023-03-09T08:20:42;31.45;;;21.63;;
39098;SDS011;24844;52.380;7.018;2023-03-09T08:23:08;33.97;;;22.75;;
39098;SDS011;24844;52.380;7.018;2023-03-09T08:25:34;31.30;;;21.35;;
39098;SDS011;24844;52.380;7.018;2023-03-09T08:28:00;30.00;;;19.73;;
39098;SDS011;24844;52.380;7.018;2023-03-09T08:30:26;30.88;;;21.08;;
39098;SDS011;24844;52.380;7.018;2023-03-09T08:32:52;29.17;;;19.05;;
39098;SDS011;24844;52.380;7.018;2023-03-09T08:35:19;31.55;;;21.33;;
39098;SDS011;24844;52.380;7.018;2023-03-09T08:37:46;34.22;;;21.45;;
39098;SDS011;24844;52.380;7.018;2023-03-09T08:40:13;31.25;;;20.38;;
39098;SDS011;24844;52.380;7.018;2023-03-09T08:42:39;28.58;;;19.42;;
39098;SDS011;24844;52.380;7.018;2023-03-09T08:45:05;28.65;;;19.60;;
39098;SDS011;24844;52.380;7.018;2023-03-09T08:47:32;26.48;;;18.63;;
39098;SDS011;24844;52.380;7.018;2023-03-09T08:49:58;28.30;;;19.70;;
39098;SDS011;24844;52.380;7.018;2023-03-09T08:52:23;27.88;;;19.13;;
39098;SDS011;24844;52.380;7.018;2023-03-09T08:54:49;26.55;;;19.05;;
39098;SDS011;24844;52.380;7.018;2023-03-09T08:57:16;25.60;;;18.55;;
39098;SDS011;24844;52.380;7.018;2023-03-09T08:59:42;26.23;;;18.20;;
39098;SDS011;24844;52.380;7.018;2023-03-09T09:02:11;29.17;;;19.85;;
39098;SDS011;24844;52.380;7.018;2023-03-09T09:04:42;28.40;;;19.17;;
39098;SDS011;24844;52.380;7.018;2023-03-09T09:07:08;29.45;;;20.30;;
39098;SDS011;24844;52.380;7.018;2023-03-09T09:09:34;27.10;;;18.48;;
39098;SDS011;24844;52.380;7.018;2023-03-09T09:11:59;27.40;;;18.90;;
39098;SDS011;24844;52.380;7.018;2023-03-09T09:14:25;26.65;;;18.42;;
39098;SDS011;24844;52.380;7.018;2023-03-09T09:16:51;27.58;;;18.98;;
39098;SDS011;24844;52.380;7.018;2023-03-09T09:19:16;27.75;;;18.40;;
39098;SDS011;24844;52.380;7.018;2023-03-09T09:21:42;30.17;;;18.75;;
39098;SDS011;24844;52.380;7.018;2023-03-09T09:24:08;26.77;;;19.42;;
39098;SDS011;24844;52.380;7.018;2023-03-09T09:26:33;27.77;;;17.85;;
39098;SDS011;24844;52.380;7.018;2023-03-09T09:28:59;26.77;;;19.02;;
39098;SDS011;24844;52.380;7.018;2023-03-09T09:31:26;25.42;;;17.83;;
39098;SDS011;24844;52.380;7.018;2023-03-09T09:33:52;26.42;;;18.23;;
39098;SDS011;24844;52.380;7.018;2023-03-09T09:36:18;29.35;;;20.13;;
39098;SDS011;24844;52.380;7.018;2023-03-09T09:38:44;30.10;;;19.60;;
39098;SDS011;24844;52.380;7.018;2023-03-09T09:43:56;30.60;;;20.33;;
39098;SDS011;24844;52.380;7.018;2023-03-09T10:07:18;28.63;;;18.55;;
39098;SDS011;24844;52.380;7.018;2023-03-09T10:09:49;29.75;;;20.63;;
39098;SDS011;24844;52.380;7.018;2023-03-09T10:12:19;27.45;;;18.98;;
39098;SDS011;24844;52.380;7.018;2023-03-09T10:14:55;30.00;;;19.98;;
39098;SDS011;24844;52.380;7.018;2023-03-09T10:22:47;31.02;;;20.98;;
39098;SDS011;24844;52.380;7.018;2023-03-09T10:28:16;28.10;;;19.13;;
39098;SDS011;24844;52.380;7.018;2023-03-09T10:39:11;28.33;;;19.05;;
39098;SDS011;24844;52.380;7.018;2023-03-09T10:41:43;28.40;;;18.95;;
39098;SDS011;24844;52.380;7.018;2023-03-09T10:44:22;27.98;;;18.75;;
39098;SDS011;24844;52.380;7.018;2023-03-09T10:49:23;26.50;;;18.95;;
39098;SDS011;24844;52.380;7.018;2023-03-09T10:52:00;30.52;;;20.63;;
39098;SDS011;24844;52.380;7.018;2023-03-09T10:54:36;27.52;;;18.63;;
39098;SDS011;24844;52.380;7.018;2023-03-09T10:57:24;34.03;;;20.38;;
39098;SDS011;24844;52.380;7.018;2023-03-09T11:00:03;27.60;;;18.02;;
39098;SDS011;24844;52.380;7.018;2023-03-09T11:02:39;28.05;;;18.80;;
39098;SDS011;24844;52.380;7.018;2023-03-09T11:05:23;26.67;;;18.52;;
39098;SDS011;24844;52.380;7.018;2023-03-09T11:07:59;26.77;;;18.23;;
39098;SDS011;24844;52.380;7.018;2023-03-09T11:10:33;28.65;;;19.65;;
39098;SDS011;24844;52.380;7.018;2023-03-09T11:13:00;28.27;;;18.90;;
39098;SDS011;24844;52.380;7.018;2023-03-09T11:20:25;24.48;;;16.40;;
39098;SDS011;24844;52.380;7.018;2023-03-09T11:22:57;27.75;;;19.48;;
39098;SDS011;24844;52.380;7.018;2023-03-09T11:25:38;27.73;;;18.17;;
39098;SDS011;24844;52.380;7.018;2023-03-09T11:28:14;24.50;;;17.10;;
39098;SDS011;24844;52.380;7.018;2023-03-09T11:30:44;24.60;;;16.65;;
39098;SDS011;24844;52.380;7.018;2023-03-09T11:33:15;28.00;;;18.88;;
39098;SDS011;24844;52.380;7.018;2023-03-09T11:35:44;25.90;;;18.40;;
39098;SDS011;24844;52.380;7.018;2023-03-09T11:38:13;24.17;;;17.60;;
39098;SDS011;24844;52.380;7.018;2023-03-09T11:40:40;25.13;;;18.15;;
39098;SDS011;24844;52.380;7.018;2023-03-09T11:43:18;22.42;;;16.80;;
39098;SDS011;24844;52.380;7.018;2023-03-09T11:45:48;23.00;;;17.15;;
39098;SDS011;24844;52.380;7.018;2023-03-09T11:48:22;23.52;;;16.65;;
39098;SDS011;24844;52.380;7.018;2023-03-09T11:53:30;22.42;;;16.30;;
39098;SDS011;24844;52.380;7.018;2023-03-09T11:58:47;24.80;;;17.42;;
39098;SDS011;24844;52.380;7.018;2023-03-09T12:02:18;25.05;;;18.05;;
39098;SDS011;24844;52.380;7.018;2023-03-09T12:04:35;26.40;;;17.80;;
39098;SDS011;24844;52.380;7.018;2023-03-09T12:09:45;26.15;;;18.23;;
39098;SDS011;24844;52.380;7.018;2023-03-09T12:14:54;25.60;;;17.42;;
39098;SDS011;24844;52.380;7.018;2023-03-09T12:17:46;23.60;;;16.83;;
39098;SDS011;24844;52.380;7.018;2023-03-09T12:23:48;24.90;;;17.80;;
39098;SDS011;24844;52.380;7.018;2023-03-09T12:25:57;26.90;;;18.75;;
39098;SDS011;24844;52.380;7.018;2023-03-09T12:28:23;27.30;;;17.60;;
39098;SDS011;24844;52.380;7.018;2023-03-09T12:30:53;25.70;;;18.80;;
39098;SDS011;24844;52.380;7.018;2023-03-09T12:39:07;27.63;;;18.27;;
39098;SDS011;24844;52.380;7.018;2023-03-09T12:41:58;31.65;;;19.48;;
39098;SDS011;24844;52.380;7.018;2023-03-09T12:49:48;30.73;;;20.42;;
39098;SDS011;24844;52.380;7.018;2023-03-09T12:52:25;27.88;;;19.50;;
39098;SDS011;24844;52.380;7.018;2023-03-09T12:55:14;29.50;;;20.48;;
39098;SDS011;24844;52.380;7.018;2023-03-09T12:57:47;27.08;;;18.90;;
39098;SDS011;24844;52.380;7.018;2023-03-09T13:03:37;30.00;;;20.38;;
39098;SDS011;24844;52.380;7.018;2023-03-09T13:05:46;27.65;;;19.83;;
39098;SDS011;24844;52.380;7.018;2023-03-09T13:08:56;30.30;;;20.92;;
39098;SDS011;24844;52.380;7.018;2023-03-09T13:11:28;30.85;;;20.70;;
39098;SDS011;24844;52.380;7.018;2023-03-09T13:14:01;28.63;;;20.38;;
39098;SDS011;24844;52.380;7.018;2023-03-09T13:21:48;32.20;;;20.20;;
39098;SDS011;24844;52.380;7.018;2023-03-09T13:24:37;35.80;;;22.48;;
39098;SDS011;24844;52.380;7.018;2023-03-09T13:29:38;35.05;;;23.15;;
39098;SDS011;24844;52.380;7.018;2023-03-09T13:34:59;39.95;;;23.85;;
39098;SDS011;24844;52.380;7.018;2023-03-09T13:37:28;36.63;;;22.65;;
39098;SDS011;24844;52.380;7.018;2023-03-09T13:42:31;33.22;;;21.83;;
39098;SDS011;24844;52.380;7.018;2023-03-09T13:44:59;37.00;;;23.10;;
39098;SDS011;24844;52.380;7.018;2023-03-09T13:47:29;40.13;;;24.52;;
39098;SDS011;24844;52.380;7.018;2023-03-09T13:49:56;34.15;;;20.38;;
39098;SDS011;24844;52.380;7.018;2023-03-09T13:52:27;35.92;;;23.42;;
39098;SDS011;24844;52.380;7.018;2023-03-09T13:54:54;34.40;;;20.98;;
39098;SDS011;24844;52.380;7.018;2023-03-09T13:57:25;33.20;;;20.80;;
39098;SDS011;24844;52.380;7.018;2023-03-09T14:02:28;593.95;;;41.70;;
39098;SDS011;24844;52.380;7.018;2023-03-09T14:07:25;35.28;;;20.13;;
39098;SDS011;24844;52.380;7.018;2023-03-09T14:10:00;36.83;;;23.45;;
39098;SDS011;24844;52.380;7.018;2023-03-09T14:12:37;39.70;;;23.48;;
39098;SDS011;24844;52.380;7.018;2023-03-09T14:15:14;583.05;;;43.15;;
39098;SDS011;24844;52.380;7.018;2023-03-09T14:17:42;39.72;;;23.55;;
39098;SDS011;24844;52.380;7.018;2023-03-09T14:20:14;41.38;;;23.73;;
39098;SDS011;24844;52.380;7.018;2023-03-09T14:22:42;38.92;;;23.17;;
39098;SDS011;24844;52.380;7.018;2023-03-09T14:31:22;53.15;;;27.23;;
39098;SDS011;24844;52.380;7.018;2023-03-09T14:33:58;43.90;;;25.25;;
39098;SDS011;24844;52.380;7.018;2023-03-09T14:36:27;47.22;;;26.45;;
39098;SDS011;24844;52.380;7.018;2023-03-09T14:39:00;45.20;;;26.27;;
39098;SDS011;24844;52.380;7.018;2023-03-09T14:41:35;44.65;;;25.67;;
39098;SDS011;24844;52.380;7.018;2023-03-09T14:44:01;50.35;;;26.95;;
39098;SDS011;24844;52.380;7.018;2023-03-09T14:46:28;50.25;;;26.02;;
39098;SDS011;24844;52.380;7.018;2023-03-09T14:48:55;51.33;;;27.35;;
39098;SDS011;24844;52.380;7.018;2023-03-09T14:51:26;197.70;;;34.55;;
39098;SDS011;24844;52.380;7.018;2023-03-09T14:53:54;52.10;;;26.85;;
39098;SDS011;24844;52.380;7.018;2023-03-09T14:56:32;56.80;;;27.50;;
39098;SDS011;24844;52.380;7.018;2023-03-09T14:58:59;47.78;;;25.02;;
39098;SDS011;24844;52.380;7.018;2023-03-09T15:01:34;51.72;;;27.13;;
39098;SDS011;24844;52.380;7.018;2023-03-09T15:04:02;57.93;;;27.70;;
39098;SDS011;24844;52.380;7.018;2023-03-09T15:06:27;56.05;;;27.63;;
39098;SDS011;24844;52.380;7.018;2023-03-09T15:08:53;83.53;;;24.73;;
39098;SDS011;24844;52.380;7.018;2023-03-09T15:11:20;58.38;;;27.67;;
39098;SDS011;24844;52.380;7.018;2023-03-09T15:13:47;45.28;;;22.63;;
39098;SDS011;24844;52.380;7.018;2023-03-09T15:16:13;62.50;;;28.60;;
39098;SDS011;24844;52.380;7.018;2023-03-09T15:18:39;56.88;;;27.00;;
39098;SDS011;24844;52.380;7.018;2023-03-09T15:21:04;61.10;;;28.15;;
39098;SDS011;24844;52.380;7.018;2023-03-09T15:23:30;61.28;;;27.33;;
39098;SDS011;24844;52.380;7.018;2023-03-09T15:25:55;56.45;;;26.58;;
39098;SDS011;24844;52.380;7.018;2023-03-09T15:28:21;66.82;;;28.42;;
39098;SDS011;24844;52.380;7.018;2023-03-09T15:30:46;58.70;;;25.85;;
39098;SDS011;24844;52.380;7.018;2023-03-09T15:33:12;44.45;;;22.52;;
39098;SDS011;24844;52.380;7.018;2023-03-09T15:35:39;41.42;;;21.25;;
39098;SDS011;24844;52.380;7.018;2023-03-09T15:38:06;81.78;;;25.83;;
39098;SDS011;24844;52.380;7.018;2023-03-09T15:40:32;47.53;;;23.50;;
39098;SDS011;24844;52.380;7.018;2023-03-09T15:42:57;62.05;;;26.38;;
39098;SDS011;24844;52.380;7.018;2023-03-09T15:45:23;48.92;;;23.52;;
39098;SDS011;24844;52.380;7.018;2023-03-09T15:47:51;51.15;;;23.30;;
39098;SDS011;24844;52.380;7.018;2023-03-09T15:50:18;69.55;;;25.30;;
39098;SDS011;24844;52.380;7.018;2023-03-09T15:52:44;63.10;;;26.45;;
39098;SDS011;24844;52.380;7.018;2023-03-09T15:55:16;56.30;;;25.25;;
39098;SDS011;24844;52.380;7.018;2023-03-09T15:57:47;45.00;;;22.20;;
39098;SDS011;24844;52.380;7.018;2023-03-09T16:00:13;56.78;;;24.95;;
39098;SDS011;24844;52.380;7.018;2023-03-09T16:02:39;49.42;;;23.90;;
39098;SDS011;24844;52.380;7.018;2023-03-09T16:05:06;68.68;;;27.10;;
39098;SDS011;24844;52.380;7.018;2023-03-09T16:07:33;57.00;;;25.23;;
39098;SDS011;24844;52.380;7.018;2023-03-09T16:09:59;62.85;;;25.52;;
39098;SDS011;24844;52.380;7.018;2023-03-09T16:12:24;56.05;;;25.58;;
39098;SDS011;24844;52.380;7.018;2023-03-09T16:14:50;68.03;;;26.25;;